Tiempo atmosférico en la estación meteorológica de Elgeta, Gipuzkoa (470 m.)



Fecha
DESCASC
Temp. máxima en grados centígrados (hora)
DESCASC
Temp. mínima en grados centígrados (hora)
DESCASC
Temp. media en grados centígrados
DESCASC
Racha de viento máxima en m/sg (hora)
DESCASC
Velocidad máxima media en intervalos de 10 minutos(hora)
DESCASC
Precipitaciones diarias en mm
DESCASC
Precipitaciones de 00:00 a 06:00 en mm
DESCASC
Precipitaciones de 06:00 a 12:00 en mm
DESCASC
Precipitaciones de 12:00 a 18:00 en mm
DESCASC
Precipitaciones de 18:00 a 24:00 en mm
DESCASC
31-03-2020 6.8 (17:20) -0.2 (00:40) 3.3 2.78 (13:10) 1.67 (06:20) 2.4 0.6 1 0.6 0.2
30-03-2020 3.4 (00:00) 0.2 (09:00) 1.8 9.44 (01:20) 2.78 (01:40) 15 2.6 0.6 9.8 2
29-03-2020 11.5 (14:20) 3.4 (00:00) 7.5 7.22 (20:40) 3.06 (15:00) 1.8 0 0 0.6 1.2
28-03-2020 15.4 (14:20) 3 (00:00) 9.2 6.39 (14:40) 2.78 (18:00) 0 0 0 0 0
27-03-2020 13.5 (14:50) 0.9 (00:00) 7.2 5.83 (16:50) 2.78 (17:00) 0 0 0 0 0
26-03-2020 9.5 (14:00) 1.9 (00:00) 5.7 11.67 (10:40) 4.72 (13:20) 0 0 0 0 0
25-03-2020 14.5 (14:10) 4.9 (00:00) 9.7 8.33 (13:30) 3.33 (12:40) 0 0 0 0 0
24-03-2020 18 (14:30) 7.2 (00:00) 12.6 6.39 (15:50) 2.5 (15:50) 0.2 0 0.2 0 0
23-03-2020 14.6 (14:10) 7.2 (00:00) 10.9 4.44 (17:40) 1.94 (16:40) 1.2 0 0 0 1.2
22-03-2020 16 (14:20) 7 (07:40) 11.5 6.67 (16:40) 3.33 (17:00) 0 0 0 0 0
21-03-2020 18.3 (15:30) 7.8 (00:00) 13 8.33 (01:30) 3.33 (13:40) 0 0 0 0 0
20-03-2020 16.8 (15:20) 8.9 (00:00) 12.8 8.61 (15:20) 4.17 (10:10) 0 0 0 0 0
19-03-2020 20 (13:10) 10.2 (00:00) 15.1 7.5 (12:30) 3.06 (02:30) 0 0 0 0 0
18-03-2020 19.4 (16:10) 8.3 (00:00) 13.8 3.61 (05:20) 2.5 (05:10) 0 0 0 0 0
17-03-2020 10.4 (17:20) 7.4 (00:00) 8.9 3.33 (23:59) 1.94 (22:50) 5.2 5 0.2 0 0
16-03-2020 8 (15:30) 4.4 (00:00) 6.2 8.06 (09:50) 2.78 (09:00) 53.8 15.8 22 8 8
15-03-2020 20.3 (14:10) 4.9 (00:00) 12.6 10.56 (22:00) 3.33 (13:00) 15.4 0 0 0 15.4
14-03-2020 13.6 (16:10) 2 (00:00) 7.8 4.44 (14:10) 2.22 (14:10) 0 0 0 0 0
13-03-2020 10.5 (16:30) 3.5 (23:30) 7 5 (07:00) 1.94 (15:20) 3.6 2 1.6 0 0
12-03-2020 11.4 (14:40) 8 (00:00) 9.7 5 (20:10) 2.22 (21:20) 1.8 0 0.4 0.4 1
11-03-2020 21 (14:40) 6.6 (00:00) 13.8 5.56 (20:20) 2.5 (08:40) 0 0 0 0 0
10-03-2020 15.6 (15:10) 4 (00:00) 9.8 4.72 (16:20) 2.78 (13:20) 0 0 0 0 0
09-03-2020 8.8 (14:40) 5.6 (00:00) 7.2 10 (12:20) 3.33 (00:20) 16.6 5.6 6.8 4.2 0
08-03-2020 14.3 (16:20) 3.5 (00:00) 8.9 8.33 (17:50) 3.33 (17:50) 0.2 0 0 0 0.2
07-03-2020 8.7 (18:10) 4.3 (00:00) 6.5 10.28 (00:20) 3.89 (13:30) 16.4 3.8 6.4 6 0.2
06-03-2020 5.8 (15:20) 2.2 (00:00) 4 19.44 (15:30) 5.56 (14:10) 29.8 2.8 15.4 7.4 4.2
05-03-2020 14.6 (05:00) 5.1 (00:00) 9.9 13.61 (16:50) 5.56 (16:50) 24.4 0.4 20 3.2 0.8
04-03-2020 16.4 (14:20) 6.9 (00:00) 11.6 5 (12:50) 2.22 (08:10) 8 4.4 3.6 0 0
03-03-2020 14.3 (12:30) 3.6 (00:00) 9 23.06 (15:40) 7.78 (15:30) 6.4 0 3.6 0 2.8

Gráficas

Temp. máximas Temp. mínimas Temp. medias Precipitaciones Rachas de viento máximas Velocidades máximas media en intervalos de 10 minutos

Datos horarios

Fecha y hora oficial Temperatura (ºC) Velocidad del viento (km/h) Dirección del viento Racha (km/h) Dirección de racha Precipitación (mm) Presión (hPa) Tendencia (hPa) Humedad (%)
2020-04-01 23:00:00 8.8 0 Calma 4 Sudoeste 0 -- -- 87
2020-04-01 22:00:00 8.8 0 Calma 4 Sudoeste 0 -- -- 87
2020-04-01 21:00:00 9.3 0 Calma 4 Sudoeste 0 -- -- 84
2020-04-01 20:00:00 10.1 2 Oeste 14 Este 0.2 -- -- 84
2020-04-01 19:00:00 11.8 5 Sudeste 22 Este 0 -- -- 69
2020-04-01 18:00:00 13.5 8 Sudeste 21 Este 0 -- -- 62
2020-04-01 17:00:00 12.6 7 Sudeste 27 Sudeste 0 -- -- 65
2020-04-01 16:00:00 13.3 10 Sudeste 24 Este 0 -- -- 65
2020-04-01 15:00:00 13.7 10 Sudeste 28 Este 0 -- -- 62
2020-04-01 14:00:00 12.8 11 Sudeste 25 Este 0 -- -- 63
2020-04-01 13:00:00 12.2 8 Sudeste 24 Sudeste 0 -- -- 67
2020-04-01 12:00:00 11.8 10 Sudeste 22 Sudeste 0 -- -- 67
2020-04-01 11:00:00 11.8 6 Sudeste 14 Sudeste 0 -- -- 74
2020-04-01 10:00:00 9.3 5 Sur 11 Sur 0 -- -- 84
2020-04-01 09:00:00 7.2 3 Sudoeste 7 Sudeste 0 -- -- 96
2020-04-01 08:00:00 7 3 Sudoeste 5 Sudoeste 0 -- -- 95
2020-04-01 07:00:00 7.4 3 Sudoeste 18 Sudeste 0.2 -- -- 92
2020-04-01 06:00:00 8.1 6 Sudeste 19 Sudeste 0 -- -- 84
2020-04-01 05:00:00 7.8 5 Sudeste 23 Sudeste 0 -- -- 86
2020-04-01 04:00:00 7.9 11 Sudeste 32 Sudeste 0 -- -- 85
2020-04-01 03:00:00 7.2 9 Sudeste 17 Sudeste 0 -- -- 90
2020-04-01 02:00:00 7.1 9 Sudeste 16 Sudeste 0 -- -- 89
2020-04-01 01:00:00 6.1 5 Sur 13 Sudeste 0 -- -- 95
2020-04-01 00:00:00 5.5 3 Sur 7 Sudeste 0 -- -- 98
2020-03-31 23:00:00 5 2 Sudoeste 6 Sur 0 -- -- 97
2020-03-31 22:00:00 5.6 3 Sur 6 Sudeste 0 -- -- 97
2020-03-31 21:00:00 5.8 0 Calma 4 Sudeste 0.2 -- -- 96
2020-03-31 20:00:00 6 0 Calma 4 Nordeste 0 -- -- 95
2020-03-31 19:00:00 6.3 2 Nordeste 5 Nordeste 0 -- -- 95
2020-03-31 18:00:00 6.7 3 Este 8 Noroeste 0 -- -- 92
2020-03-31 17:00:00 6.4 3 Sudeste 9 Sudeste 0 -- -- 92
2020-03-31 16:00:00 5.9 4 Sudeste 8 Sudeste 0.2 -- -- 91
2020-03-31 15:00:00 5.2 3 Sudeste 9 Sudeste 0 -- -- 92
2020-03-31 14:00:00 4.1 5 Sudeste 10 Sur 0.2 -- -- 91
2020-03-31 13:00:00 3 6 Sudeste 9 Sudeste 0.2 -- -- 96
2020-03-31 12:00:00 1.9 4 Sudeste 7 Sudeste 0 -- -- 97
2020-03-31 11:00:00 1.4 3 Este 7 Este 0.2 -- -- 98
2020-03-31 10:00:00 1 3 Este 6 Sudeste 0.2 -- -- 99
2020-03-31 09:00:00 0.4 0 Calma 5 Este 0.4 -- -- 99
2020-03-31 08:00:00 0.2 2 Sudeste 5 Este 0 -- -- 99
2020-03-31 07:00:00 0.2 0 Calma 10 Sudeste 0.2 -- -- 98
2020-03-31 06:00:00 0.2 3 Sudeste 8 Sudeste 0 -- -- 98
2020-03-31 05:00:00 0.2 3 Sudeste 7 Sudeste 0.2 -- -- 98
2020-03-31 04:00:00 0.1 5 Sudeste 9 Sudeste 0.2 -- -- 98
2020-03-31 03:00:00 0.3 3 Sudeste 8 Sudeste 0 -- -- 98
2020-03-31 02:00:00 0.2 4 Sudeste 8 Sudeste 0.2 -- -- 98
2020-03-31 01:00:00 0.1 4 Sudeste 8 Sudeste 0 -- -- 98
2020-03-31 00:00:00 0.5 0 Calma 3 Norte 0.4 -- -- 98
2020-03-30 23:00:00 0.6 0 Calma 4 Este 0.2 -- -- 98
2020-03-30 22:00:00 0.5 2 Norte 8 Oeste 0.4 -- -- 97
2020-03-30 21:00:00 0.5 2 Norte 12 Noroeste 0.2 -- -- 97
2020-03-30 20:00:00 0.8 4 Oeste 10 Oeste 0.6 -- -- 96
2020-03-30 19:00:00 0.8 3 Noroeste 9 Oeste 0.2 -- -- 96
2020-03-30 18:00:00 1 6 Norte 18 Norte 0 -- -- 92
2020-03-30 17:00:00 2.6 6 Norte 15 Norte 1 -- -- 88
2020-03-30 16:00:00 2.4 7 Norte 21 Nordeste 1.4 -- -- 88
2020-03-30 15:00:00 2.9 5 Este 9 Norte 3.8 -- -- 89
2020-03-30 14:00:00 0.9 5 Noroeste 16 Oeste 1.8 -- -- 93
2020-03-30 13:00:00 1.2 0 Calma 10 Nordeste 1.8 -- -- 92
2020-03-30 12:00:00 0.9 3 Noroeste 12 Oeste 0.2 -- -- 95
2020-03-30 11:00:00 0.8 5 Oeste 9 Noroeste 0 -- -- 95
2020-03-30 10:00:00 0.3 3 Oeste 15 Oeste 0 -- -- 96
2020-03-30 09:00:00 0.2 6 Noroeste 20 Oeste 0 -- -- 95
2020-03-30 08:00:00 0.8 5 Norte 18 Norte 0.2 -- -- 93
2020-03-30 07:00:00 1.1 5 Oeste 16 Norte 0.2 -- -- 93
2020-03-30 06:00:00 1.1 5 Oeste 13 Noroeste 0.6 -- -- 95
2020-03-30 05:00:00 1.3 2 Norte 5 Norte 0.2 -- -- 96
2020-03-30 04:00:00 1.4 2 Oeste 10 Sudeste 0 -- -- 92
2020-03-30 03:00:00 2.1 7 Este 23 Este 0.4 -- -- 90
2020-03-30 02:00:00 2.6 6 Sudeste 34 Sudeste 0.4 -- -- 92
2020-03-30 01:00:00 3 4 Norte 27 Sudeste 1 -- -- 93
2020-03-30 00:00:00 3.4 6 Norte 18 Noroeste 0.4 -- -- 93
2020-03-29 23:00:00 4 8 Norte 25 Norte 0.8 -- -- 94
2020-03-29 22:00:00 4.7 10 Norte 26 Norte 0 -- -- 94
2020-03-29 21:00:00 5.3 9 Norte 26 Norte 0 -- -- 93
2020-03-29 20:00:00 5.9 8 Norte 21 Norte 0 -- -- 94
2020-03-29 19:00:00 6.3 6 Norte 17 Este 0 -- -- 95
2020-03-29 18:00:00 6.5 8 Nordeste 21 Norte 0 -- -- 95
2020-03-29 17:00:00 6.9 6 Norte 19 Nordeste 0.6 -- -- 94
2020-03-29 16:00:00 8.1 8 Norte 22 Norte 0 -- -- 89
2020-03-29 15:00:00 10.6 11 Nordeste 22 Nordeste 0 -- -- 64
2020-03-29 14:00:00 10.5 5 Norte 16 Norte 0 -- -- 65
2020-03-29 13:00:00 10.5 4 Norte 15 Noroeste 0 -- -- 69
2020-03-29 12:00:00 9.7 6 Oeste 15 Oeste 0 -- -- 73
2020-03-29 11:00:00 9.2 5 Noroeste 13 Norte 0 -- -- 76
2020-03-29 10:00:00 6.5 2 Sudeste 5 Sudeste 0 -- -- 81
2020-03-29 09:00:00 4.6 0 Calma 5 Sur 0 -- -- 91
2020-03-29 08:00:00 3.7 0 Calma 5 Sur 0 -- -- 90
2020-03-29 07:00:00 4.1 2 Oeste 4 Sur 0 -- -- 93
2020-03-29 06:00:00 4.1 4 Sur 8 Sur 0 -- -- 83
2020-03-29 05:00:00 4.2 0 Calma 5 Sur 0 -- -- 87
2020-03-29 03:00:00 4.6 2 Sudoeste 6 Sur 0 -- -- 85
2020-03-29 01:00:00 4.6 2 Sudoeste 5 Oeste 0 -- -- 75
2020-03-29 00:00:00 4.7 3 Oeste 6 Sudoeste 0 -- -- 71
2020-03-28 23:00:00 5.3 3 Sudoeste 6 Sudoeste 0 -- -- 67
2020-03-28 22:00:00 6.1 4 Oeste 10 Noroeste 0 -- -- 67
2020-03-28 21:00:00 7.6 7 Norte 16 Norte 0 -- -- 59
2020-03-28 20:00:00 7.9 3 Oeste 18 Nordeste 0 -- -- 66
2020-03-28 19:00:00 10.5 5 Nordeste 17 Norte 0 -- -- 53
2020-03-28 18:00:00 12.7 10 Nordeste 19 Nordeste 0 -- -- 45
2020-03-28 17:00:00 14.2 6 Nordeste 17 Nordeste 0 -- -- 46
2020-03-28 16:00:00 14.2 7 Norte 20 Nordeste 0 -- -- 46
2020-03-28 15:00:00 14.8 8 Norte 23 Norte 0 -- -- 45
2020-03-28 14:00:00 15 8 Norte 20 Norte 0 -- -- 45
2020-03-28 13:00:00 15.1 5 Nordeste 20 Norte 0 -- -- 40
2020-03-28 12:00:00 13.9 3 Sudeste 11 Este 0 -- -- 48
2020-03-28 11:00:00 12.6 4 Sudeste 10 Sudeste 0 -- -- 50
2020-03-28 10:00:00 9.2 5 Sudeste 10 Sudeste 0 -- -- 68
2020-03-28 09:00:00 5.4 5 Sudeste 10 Sudeste 0 -- -- 81
2020-03-28 08:00:00 4 6 Sur 10 Sudeste 0 -- -- 82
2020-03-28 07:00:00 3.2 4 Sur 8 Sur 0 -- -- 85
2020-03-28 06:00:00 3 4 Sur 10 Sur 0 -- -- 89
2020-03-28 05:00:00 3.5 5 Sur 8 Sudeste 0 -- -- 86
2020-03-28 04:00:00 3.6 4 Sur 8 Sudeste 0 -- -- 85
2020-03-28 03:00:00 3.8 3 Sur 7 Sudeste 0 -- -- 84
2020-03-28 02:00:00 4 3 Sur 5 Oeste 0 -- -- 84
2020-03-28 01:00:00 4 3 Oeste 4 Oeste 0 -- -- 85
2020-03-28 00:00:00 4.3 2 Sudoeste 5 Sudoeste 0 -- -- 84
2020-03-27 23:00:00 4.1 0 Calma 4 Oeste 0 -- -- 86
2020-03-27 22:00:00 4.5 2 Sudoeste 6 Sudoeste 0 -- -- 83
2020-03-27 21:00:00 4.9 3 Sudoeste 5 Sudoeste 0 -- -- 84
2020-03-27 20:00:00 5.7 4 Sudoeste 11 Norte 0 -- -- 79
2020-03-27 19:00:00 7.7 5 Nordeste 19 Nordeste 0 -- -- 70
2020-03-27 18:00:00 10.7 8 Norte 17 Nordeste 0 -- -- 57
2020-03-27 17:00:00 11.3 10 Norte 21 Norte 0 -- -- 54
2020-03-27 16:00:00 12.2 8 Norte 18 Norte 0 -- -- 46
2020-03-27 15:00:00 13 6 Nordeste 17 Norte 0 -- -- 39
2020-03-27 14:00:00 12.6 6 Este 21 Este 0 -- -- 44
2020-03-27 13:00:00 12.2 6 Este 13 Sudeste 0 -- -- 43
2020-03-27 12:00:00 11.2 3 Sudeste 12 Sudeste 0 -- -- 51
2020-03-27 11:00:00 9.5 4 Sudeste 10 Sudeste 0 -- -- 53
2020-03-27 10:00:00 7 4 Sudeste 9 Sudeste 0 -- -- 62
2020-03-27 09:00:00 2.9 6 Sudeste 10 Sudeste 0 -- -- 78
2020-03-27 08:00:00 1.4 3 Sudeste 9 Sudeste 0 -- -- 83
2020-03-27 07:00:00 1.1 4 Sur 7 Sur 0 -- -- 82
2020-03-27 06:00:00 1.1 3 Sur 6 Sur 0 -- -- 82
2020-03-27 05:00:00 1.2 3 Sur 6 Sur 0 -- -- 82
2020-03-27 04:00:00 1.4 3 Sur 7 Sudeste 0 -- -- 80
2020-03-27 03:00:00 1.5 0 Calma 8 Sudeste 0 -- -- 83
2020-03-27 02:00:00 1.8 3 Sudoeste 10 Sudeste 0 -- -- 81
2020-03-27 01:00:00 2.2 3 Oeste 10 Sudeste 0 -- -- 80
2020-03-27 00:00:00 1.9 0 Calma 5 Sur 0 -- -- 81
2020-03-26 23:00:00 2.3 0 Calma 5 Oeste 0 -- -- 75
2020-03-26 22:00:00 2.7 3 Oeste 7 Oeste 0 -- -- 73
2020-03-26 21:00:00 3.6 3 Oeste 19 Noroeste 0 -- -- 68
2020-03-26 20:00:00 4.8 5 Noroeste 13 Oeste 0 -- -- 63
2020-03-26 19:00:00 6 5 Noroeste 18 Nordeste 0 -- -- 60
2020-03-26 18:00:00 7.7 8 Norte 25 Nordeste 0 -- -- 55
2020-03-26 17:00:00 8.5 14 Norte 40 Nordeste 0 -- -- 49
2020-03-26 16:00:00 8.8 14 Norte 37 Nordeste 0 -- -- 44
2020-03-26 15:00:00 8.3 14 Nordeste 36 Nordeste 0 -- -- 49
2020-03-26 14:00:00 9.5 15 Nordeste 33 Norte 0 -- -- 46
2020-03-26 13:00:00 9.2 12 Norte 32 Norte 0 -- -- 53
2020-03-26 12:00:00 9 12 Norte 33 Norte 0 -- -- 54
2020-03-26 11:00:00 8.4 15 Norte 42 Nordeste 0 -- -- 49
2020-03-26 10:00:00 8 14 Norte 31 Oeste 0 -- -- 59
2020-03-26 09:00:00 7.2 9 Noroeste 24 Noroeste 0 -- -- 71
2020-03-26 08:00:00 6.5 7 Noroeste 21 Noroeste 0 -- -- 82
2020-03-26 07:00:00 6.2 6 Noroeste 28 Oeste 0 -- -- 86
2020-03-26 06:00:00 6.1 9 Noroeste 25 Noroeste 0 -- -- 84
2020-03-26 05:00:00 6 11 Noroeste 24 Oeste 0 -- -- 85
2020-03-26 04:00:00 5.9 10 Noroeste 28 Oeste 0 -- -- 86
2020-03-26 03:00:00 6.1 10 Noroeste 34 Noroeste 0 -- -- 82
2020-03-26 02:00:00 6 9 Noroeste 26 Noroeste 0 -- -- 79
2020-03-26 01:00:00 5.8 9 Noroeste 23 Noroeste 0 -- -- 80
2020-03-26 00:00:00 5.8 8 Noroeste 22 Norte 0 -- -- 80
2020-03-25 23:00:00 5.2 6 Noroeste 18 Noroeste 0 -- -- 83
2020-03-25 22:00:00 5.2 5 Noroeste 20 Noroeste 0 -- -- 82
2020-03-25 21:00:00 5.8 8 Noroeste 18 Oeste 0 -- -- 75
2020-03-25 20:00:00 6.2 6 Norte 20 Oeste 0 -- -- 72
2020-03-25 19:00:00 8.2 6 Noroeste 24 Noroeste 0 -- -- 59
2020-03-25 18:00:00 11.1 6 Norte 24 Oeste 0 -- -- 53
2020-03-25 17:00:00 11.6 10 Noroeste 27 Este 0 -- -- 57
2020-03-25 16:00:00 13.8 10 Norte 27 Norte 0 -- -- 53
2020-03-25 15:00:00 14.2 10 Noroeste 29 Noroeste 0 -- -- 54
2020-03-25 14:00:00 14.2 9 Noroeste 30 Noroeste 0 -- -- 59
2020-03-25 13:00:00 13.5 9 Noroeste 28 Noroeste 0 -- -- 66
2020-03-25 12:00:00 13.6 7 Noroeste 17 Norte 0 -- -- 62
2020-03-25 11:00:00 13.2 6 Noroeste 15 Oeste 0 -- -- 69
2020-03-25 10:00:00 11.5 4 Oeste 10 Sudoeste 0 -- -- 74
2020-03-25 09:00:00 8.7 2 Sudeste 8 Sudeste 0 -- -- 87
2020-03-25 08:00:00 6.8 5 Sur 10 Sudeste 0 -- -- 93
2020-03-25 07:00:00 6.4 4 Sur 9 Sudeste 0 -- -- 92
2020-03-25 06:00:00 6.8 3 Sur 8 Sudeste 0 -- -- 91
2020-03-25 05:00:00 6.9 3 Sur 8 Sudeste 0 -- -- 90
2020-03-25 04:00:00 6.9 2 Sudoeste 8 Sudeste 0 -- -- 91
2020-03-25 03:00:00 7.3 3 Sudoeste 5 Sudoeste 0 -- -- 90
2020-03-25 02:00:00 7.4 3 Sudoeste 5 Sudeste 0 -- -- 89
2020-03-25 01:00:00 8 4 Sur 5 Sur 0 -- -- 86
2020-03-25 00:00:00 8.1 3 Sudoeste 4 Oeste 0 -- -- 86
2020-03-24 23:00:00 8.3 2 Sudoeste 4 Sudoeste 0 -- -- 86
2020-03-24 22:00:00 8.9 2 Oeste 7 Sudeste 0 -- -- 83
2020-03-24 21:00:00 9.4 2 Sudoeste 6 Sudoeste 0 -- -- 78
2020-03-24 20:00:00 10.8 2 Sur 7 Sudoeste 0 -- -- 70
2020-03-24 19:00:00 12.7 2 Oeste 12 Este 0 -- -- 63
2020-03-24 18:00:00 15.3 3 Norte 17 Norte 0 -- -- 52
2020-03-24 17:00:00 16.6 6 Nordeste 20 Norte 0 -- -- 56
2020-03-24 16:00:00 17.2 7 Nordeste 23 Nordeste 0 -- -- 54
2020-03-24 15:00:00 17.1 7 Norte 15 Nordeste 0 -- -- 56
2020-03-24 14:00:00 17.4 4 Sudeste 13 Sudeste 0 -- -- 52
2020-03-24 13:00:00 17.2 8 Sudeste 15 Sudeste 0 -- -- 53
2020-03-24 12:00:00 16.1 5 Sudeste 10 Este 0 -- -- 60
2020-03-24 11:00:00 14.3 6 Sudeste 13 Este 0 -- -- 67
2020-03-24 10:00:00 13.1 4 Sudeste 10 Este 0 -- -- 75
2020-03-24 09:00:00 9.7 5 Sudeste 9 Sudeste 0 -- -- 90
2020-03-24 08:00:00 8.2 4 Sur 8 Sur 0.2 -- -- 94
2020-03-24 07:00:00 8.1 2 Sudoeste 8 Sudeste 0 -- -- 95
2020-03-24 06:00:00 7.6 2 Sudoeste 6 Sudoeste 0 -- -- 97
2020-03-24 05:00:00 7.2 4 Sudoeste 6 Sudoeste 0 -- -- 97
2020-03-24 04:00:00 7.3 4 Sudoeste 7 Sudeste 0 -- -- 97
2020-03-24 03:00:00 8 3 Sudeste 8 Sudeste 0 -- -- 97
2020-03-24 02:00:00 8 3 Sur 6 Sur 0 -- -- 97
2020-03-24 01:00:00 8.9 3 Sudeste 7 Este 0 -- -- 97
2020-03-24 00:00:00 9 3 Sudeste 6 Sur 0 -- -- 97
2020-03-23 23:00:00 8.7 0 Calma 5 Sudeste 0 -- -- 94
2020-03-23 22:00:00 9.4 2 Sudoeste 5 Sudoeste 0 -- -- 94
2020-03-23 21:00:00 9.9 0 Calma 10 Sudeste 1.2 -- -- 93
2020-03-23 20:00:00 9.9 2 Sudeste 8 Sudeste 0 -- -- 86
2020-03-23 19:00:00 11 3 Sudeste 11 Nordeste 0 -- -- 82
2020-03-23 18:00:00 11.6 5 Este 16 Norte 0 -- -- 81
2020-03-23 17:00:00 12.6 5 Nordeste 15 Nordeste 0 -- -- 76
2020-03-23 16:00:00 13.8 6 Nordeste 13 Este 0 -- -- 72
2020-03-23 15:00:00 14 6 Nordeste 14 Norte 0 -- -- 67
2020-03-23 14:00:00 14.4 4 Sur 12 Este 0 -- -- 65
2020-03-23 13:00:00 12.5 4 Este 11 Sudeste 0 -- -- 75
2020-03-23 12:00:00 11.2 4 Nordeste 10 Nordeste 0 -- -- 79
2020-03-23 11:00:00 10.6 3 Este 8 Sudeste 0 -- -- 82
2020-03-23 10:00:00 9.9 3 Este 7 Este 0 -- -- 84
2020-03-23 09:00:00 8.9 0 Calma 4 Este 0 -- -- 93
2020-03-23 08:00:00 8.1 2 Oeste 4 Noroeste 0 -- -- 96
2020-03-23 07:00:00 7.2 3 Oeste 4 Oeste 0 -- -- 94
2020-03-23 06:00:00 8.3 0 Calma 8 Sudeste 0 -- -- 93
2020-03-23 05:00:00 8.1 2 Oeste 5 Noroeste 0 -- -- 93
2020-03-23 04:00:00 7.8 0 Calma 8 Sudeste 0 -- -- 94
2020-03-23 03:00:00 7.7 4 Oeste 9 Noroeste 0 -- -- 92
2020-03-23 02:00:00 8.7 5 Noroeste 10 Noroeste 0 -- -- 92
2020-03-23 01:00:00 8.9 3 Noroeste 12 Oeste 0 -- -- 93
2020-03-23 00:00:00 8.9 5 Noroeste 14 Noroeste 0 -- -- 94
2020-03-22 23:00:00 9 5 Noroeste 14 Oeste 0 -- -- 92
2020-03-22 22:00:00 8.9 5 Noroeste 10 Oeste 0 -- -- 93
2020-03-22 21:00:00 9.3 4 Noroeste 12 Oeste 0 -- -- 90
2020-03-22 20:00:00 10.1 3 Sudoeste 6 Sur 0 -- -- 85
2020-03-22 19:00:00 11.6 4 Este 11 Este 0 -- -- 80
2020-03-22 18:00:00 12.8 5 Norte 18 Nordeste 0 -- -- 75
2020-03-22 17:00:00 13.4 12 Nordeste 24 Nordeste 0 -- -- 73
2020-03-22 16:00:00 13.7 8 Nordeste 16 Norte 0 -- -- 72
2020-03-22 15:00:00 15.6 9 Norte 21 Oeste 0 -- -- 59
2020-03-22 14:00:00 15.4 6 Norte 16 Noroeste 0 -- -- 64
2020-03-22 13:00:00 14.7 6 Norte 15 Norte 0 -- -- 68
2020-03-22 12:00:00 13.2 5 Norte 16 Noroeste 0 -- -- 72
2020-03-22 11:00:00 10.5 8 Noroeste 17 Noroeste 0 -- -- 79
2020-03-22 10:00:00 9.2 9 Noroeste 15 Noroeste 0 -- -- 84
2020-03-22 09:00:00 7.9 2 Norte 5 Noroeste 0 -- -- 87
2020-03-22 08:00:00 7.1 0 Calma 4 Sur 0 -- -- 82
2020-03-22 07:00:00 7.5 3 Sudoeste 6 Sudoeste 0 -- -- 79
2020-03-22 06:00:00 8 4 Sur 6 Sur 0 -- -- 75
2020-03-22 05:00:00 8 3 Sur 6 Sudoeste 0 -- -- 77
2020-03-22 04:00:00 8.3 3 Sudoeste 5 Sudoeste 0 -- -- 76
2020-03-22 03:00:00 8.7 3 Sudoeste 6 Sudoeste 0 -- -- 75
2020-03-22 02:00:00 9 4 Sur 6 Sudoeste 0 -- -- 71
2020-03-22 01:00:00 9.5 4 Sur 9 Sudeste 0 -- -- 66
2020-03-22 00:00:00 9.7 4 Sudeste 10 Sur 0 -- -- 64
2020-03-21 23:00:00 10.6 7 Sudeste 14 Sudeste 0 -- -- 60
2020-03-21 22:00:00 11.1 10 Sudeste 14 Sudeste 0 -- -- 58
2020-03-21 21:00:00 11.2 4 Sur 10 Sur 0 -- -- 61
2020-03-21 20:00:00 11.4 3 Sudoeste 8 Sudoeste 0 -- -- 61
2020-03-21 19:00:00 12.9 3 Sudoeste 13 Sur 0 -- -- 57
2020-03-21 18:00:00 16.3 4 Sur 15 Sudeste 0 -- -- 40
2020-03-21 17:00:00 18.1 6 Sudeste 15 Sudeste 0 -- -- 36
2020-03-21 16:00:00 18.2 7 Este 18 Sudeste 0 -- -- 40
2020-03-21 15:00:00 17.8 7 Sudeste 18 Este 0 -- -- 41
2020-03-21 14:00:00 17.7 10 Este 20 Este 0 -- -- 42
2020-03-21 13:00:00 16.9 7 Sudeste 22 Sudeste 0 -- -- 43
2020-03-21 12:00:00 16 8 Sudeste 21 Este 0 -- -- 44
2020-03-21 11:00:00 14.3 8 Sudeste 20 Sudeste 0 -- -- 50
2020-03-21 10:00:00 12.3 8 Sudeste 22 Sudeste 0 -- -- 58
2020-03-21 09:00:00 10.5 7 Sudeste 21 Sudeste 0 -- -- 62
2020-03-21 08:00:00 8.5 7 Sudeste 18 Sur 0 -- -- 65
2020-03-21 07:00:00 8.2 3 Sur 13 Sudeste 0 -- -- 72
2020-03-21 06:00:00 9.9 5 Sudeste 18 Sudeste 0 -- -- 67
2020-03-21 05:00:00 10.3 9 Sudeste 19 Sudeste 0 -- -- 67
2020-03-21 04:00:00 9.5 6 Sur 13 Sudeste 0 -- -- 73
2020-03-21 03:00:00 10.8 6 Sur 20 Sudeste 0 -- -- 67
2020-03-21 02:00:00 11.8 9 Sudeste 30 Sudeste 0 -- -- 63
2020-03-21 01:00:00 11.8 8 Sudeste 30 Sudeste 0 -- -- 63
2020-03-21 00:00:00 11.9 9 Sudeste 24 Sudeste 0 -- -- 63
2020-03-20 23:00:00 11.7 6 Sudeste 21 Sudeste 0 -- -- 66
2020-03-20 22:00:00 10.8 5 Sur 12 Sur 0 -- -- 72
2020-03-20 21:00:00 10.6 4 Sudoeste 10 Sudeste 0 -- -- 72
2020-03-20 20:00:00 11.2 3 Sur 8 Sudoeste 0 -- -- 70
2020-03-20 19:00:00 12.6 4 Sudoeste 11 Este 0 -- -- 64
2020-03-20 18:00:00 14.9 3 Sur 22 Nordeste 0 -- -- 52
2020-03-20 17:00:00 15.7 11 Este 24 Este 0 -- -- 46
2020-03-20 16:00:00 16.2 9 Sudeste 31 Este 0 -- -- 43
2020-03-20 15:00:00 16 6 Sudeste 29 Sudeste 0 -- -- 45
2020-03-20 14:00:00 16.3 11 Sudeste 30 Sudeste 0 -- -- 40
2020-03-20 13:00:00 16 9 Sudeste 28 Este 0 -- -- 39
2020-03-20 12:00:00 15.7 10 Sudeste 28 Sudeste 0 -- -- 38
2020-03-20 11:00:00 13.8 7 Sudeste 28 Sudeste 0 -- -- 42
2020-03-20 10:00:00 13.4 11 Sudeste 26 Sudeste 0 -- -- 40
2020-03-20 09:00:00 12 10 Sudeste 22 Sudeste 0 -- -- 46
2020-03-20 08:00:00 10.4 4 Sur 16 Sudeste 0 -- -- 51
2020-03-20 07:00:00 9.6 4 Sudoeste 13 Sur 0 -- -- 55
2020-03-20 06:00:00 9.4 4 Sudeste 10 Sudeste 0 -- -- 58
2020-03-20 05:00:00 9.2 3 Sur 13 Sur 0 -- -- 63
2020-03-20 04:00:00 11.3 6 Sur 24 Sudeste 0 -- -- 51
2020-03-20 03:00:00 12.1 11 Sudeste 25 Sudeste 0 -- -- 48
2020-03-20 02:00:00 12.6 7 Sur 28 Sudeste 0 -- -- 50
2020-03-20 01:00:00 12.8 7 Sudeste 24 Sudeste 0 -- -- 53
2020-03-20 00:00:00 13.1 11 Sudeste 27 Sudeste 0 -- -- 54
2020-03-19 23:00:00 12.1 6 Sudeste 17 Sudeste 0 -- -- 58
2020-03-19 22:00:00 11.6 4 Sur 13 Sur 0 -- -- 55
2020-03-19 21:00:00 12.8 5 Sur 15 Sudeste 0 -- -- 51
2020-03-19 20:00:00 13.4 5 Sudoeste 12 Sur 0 -- -- 50
2020-03-19 19:00:00 15.3 3 Sur 17 Sudeste 0 -- -- 49
2020-03-19 18:00:00 17.4 6 Sudeste 13 Sur 0 -- -- 42
2020-03-19 17:00:00 18.5 4 Sudeste 21 Sudeste 0 -- -- 44
2020-03-19 16:00:00 19.3 11 Sudeste 24 Sudeste 0 -- -- 43
2020-03-19 15:00:00 19.2 8 Sudeste 18 Sudeste 0 -- -- 45
2020-03-19 14:00:00 19.7 8 Sudeste 26 Este 0 -- -- 46
2020-03-19 13:00:00 19.7 9 Sudeste 27 Sudeste 0 -- -- 43
2020-03-19 12:00:00 19.1 8 Este 26 Este 0 -- -- 46
2020-03-19 11:00:00 16.3 5 Sudeste 15 Sudeste 0 -- -- 60
2020-03-19 10:00:00 13.3 5 Sudeste 18 Sudeste 0 -- -- 71
2020-03-19 09:00:00 11.7 6 Sudeste 11 Sudeste 0 -- -- 73
2020-03-19 08:00:00 10.7 5 Sur 10 Sudeste 0 -- -- 78
2020-03-19 07:00:00 10.6 6 Sur 11 Sur 0 -- -- 80
2020-03-19 06:00:00 10.2 4 Sur 10 Sudeste 0 -- -- 84
2020-03-19 05:00:00 10.6 4 Sur 10 Sur 0 -- -- 83
2020-03-19 04:00:00 10.7 6 Sur 15 Sudeste 0 -- -- 82
2020-03-19 03:00:00 11.3 9 Sudeste 15 Sudeste 0 -- -- 78
2020-03-19 02:00:00 11.5 9 Sudeste 15 Sudeste 0 -- -- 80
2020-03-19 01:00:00 11.6 8 Sudeste 13 Sudeste 0 -- -- 80
2020-03-19 00:00:00 11.7 3 Sur 9 Sudeste 0 -- -- 82
2020-03-18 23:00:00 11.9 4 Sur 8 Sudeste 0 -- -- 84
2020-03-18 22:00:00 12.5 4 Sur 8 Sudeste 0 -- -- 83
2020-03-18 21:00:00 13 4 Sur 6 Sur 0 -- -- 78
2020-03-18 20:00:00 13.6 4 Sudoeste 7 Sudoeste 0 -- -- 78
2020-03-18 19:00:00 14.6 3 Sudoeste 5 Sudoeste 0 -- -- 75
2020-03-18 18:00:00 16.9 3 Sudoeste 6 Sur 0 -- -- 73
2020-03-18 17:00:00 19 4 Sudeste 10 Este 0 -- -- 59
2020-03-18 16:00:00 19.3 5 Sudeste 13 Este 0 -- -- 59
2020-03-18 15:00:00 18.4 5 Sudeste 13 Este 0 -- -- 63
2020-03-18 14:00:00 17.3 5 Sudeste 12 Este 0 -- -- 62
2020-03-18 13:00:00 15.6 6 Sudeste 13 Sudeste 0 -- -- 73
2020-03-18 12:00:00 14.6 6 Sudeste 13 Sudeste 0 -- -- 76
2020-03-18 11:00:00 12.7 6 Sudeste 10 Sudeste 0 -- -- 82
2020-03-18 10:00:00 10.9 6 Sudeste 12 Sudeste 0 -- -- 87
2020-03-18 09:00:00 9.3 4 Sur 9 Sur 0 -- -- 92
2020-03-18 08:00:00 8.9 5 Sur 12 Sudeste 0 -- -- 94
2020-03-18 07:00:00 9 3 Sur 10 Sudeste 0 -- -- 93
2020-03-18 06:00:00 9.5 5 Sudeste 13 Sudeste 0 -- -- 90
2020-03-18 05:00:00 9.8 5 Sudeste 12 Sudeste 0 -- -- 89
2020-03-18 04:00:00 9.2 8 Sudeste 11 Sudeste 0 -- -- 94
2020-03-18 03:00:00 8.6 4 Sur 9 Sur 0 -- -- 98
2020-03-18 02:00:00 8.6 4 Sudeste 9 Sudeste 0 -- -- 98
2020-03-18 01:00:00 8.9 2 Sudeste 12 Sudeste 0 -- -- 97
2020-03-18 00:00:00 9.2 6 Sudeste 12 Sudeste 0 -- -- 97
2020-03-17 23:00:00 9.3 6 Sudeste 11 Sur 0 -- -- 96
2020-03-17 22:00:00 8.9 3 Sudeste 9 Sur 0 -- -- 96
2020-03-17 21:00:00 9.1 4 Sudeste 8 Sudeste 0 -- -- 97
2020-03-17 20:00:00 9.3 2 Sudeste 5 Sudeste 0 -- -- 95
2020-03-17 19:00:00 10.1 0 Calma 6 Sudeste 0 -- -- 93
2020-03-17 18:00:00 10.3 0 Calma 7 Sudeste 0 -- -- 93
2020-03-17 17:00:00 10.3 3 Sudeste 6 Sudeste 0 -- -- 92
2020-03-17 16:00:00 9.9 3 Sudeste 5 Este 0 -- -- 93
2020-03-17 15:00:00 9.2 3 Nordeste 8 Norte 0 -- -- 95
2020-03-17 14:00:00 9.5 2 Nordeste 10 Nordeste 0 -- -- 93
2020-03-17 13:00:00 9.5 2 Sudeste 10 Este 0 -- -- 94
2020-03-17 12:00:00 9 2 Norte 6 Norte 0 -- -- 96
2020-03-17 11:00:00 8.8 0 Calma 5 Norte 0 -- -- 97
2020-03-17 10:00:00 8.6 0 Calma 3 Norte 0 -- -- 97
2020-03-17 09:00:00 8.3 2 Oeste 5 Sudoeste 0 -- -- 98
2020-03-17 08:00:00 8 0 Calma 8 Sudeste 0 -- -- 97
2020-03-17 07:00:00 8 0 Calma 10 Norte 0.2 -- -- 97
2020-03-17 06:00:00 7.9 4 Norte 9 Norte 0.6 -- -- 98
2020-03-17 05:00:00 7.8 0 Calma 5 Noroeste 0.8 -- -- 98
2020-03-17 04:00:00 7.8 0 Calma 8 Norte 1.2 -- -- 98
2020-03-17 03:00:00 7.8 0 Calma 9 Oeste 0.8 -- -- 98
2020-03-17 02:00:00 7.6 3 Oeste 8 Oeste 0.6 -- -- 98
2020-03-17 01:00:00 7.4 3 Oeste 6 Noroeste 1 -- -- 98
2020-03-17 00:00:00 7.5 3 Oeste 12 Oeste 0.8 -- -- 98
2020-03-16 23:00:00 7.3 4 Noroeste 13 Norte 1 -- -- 98
2020-03-16 22:00:00 7.2 3 Noroeste 17 Nordeste 0.8 -- -- 98
2020-03-16 21:00:00 7.1 4 Noroeste 18 Noroeste 0.4 -- -- 98
2020-03-16 20:00:00 7.1 7 Norte 19 Noroeste 2 -- -- 97
2020-03-16 19:00:00 7.3 5 Norte 15 Norte 3 -- -- 97
2020-03-16 18:00:00 7.2 2 Noroeste 16 Noroeste 0.4 -- -- 96
2020-03-16 17:00:00 7.3 4 Norte 18 Oeste 0.2 -- -- 96
2020-03-16 16:00:00 7.7 5 Norte 14 Norte 0.2 -- -- 94
2020-03-16 15:00:00 7.7 3 Noroeste 12 Nordeste 1.2 -- -- 97
2020-03-16 14:00:00 7.5 3 Norte 14 Norte 2.6 -- -- 96
2020-03-16 13:00:00 7.3 4 Noroeste 12 Norte 3.4 -- -- 97
2020-03-16 12:00:00 6.8 3 Noroeste 22 Norte 3.2 -- -- 97
2020-03-16 11:00:00 6.2 4 Noroeste 24 Nordeste 3.4 -- -- 97
2020-03-16 10:00:00 5.7 7 Noroeste 29 Noroeste 3.8 -- -- 97
2020-03-16 09:00:00 5 10 Noroeste 25 Oeste 3.8 -- -- 98
2020-03-16 08:00:00 4.6 9 Noroeste 24 Noroeste 3.8 -- -- 98
2020-03-16 07:00:00 4.4 10 Noroeste 22 Noroeste 4 -- -- 98
2020-03-16 06:00:00 4.5 7 Noroeste 23 Noroeste 2.6 -- -- 98
2020-03-16 05:00:00 4.6 8 Noroeste 23 Oeste 2.4 -- -- 98
2020-03-16 04:00:00 4.8 7 Oeste 23 Oeste 5 -- -- 98
2020-03-16 03:00:00 5.2 6 Noroeste 17 Oeste 3.6 -- -- 97
2020-03-16 02:00:00 5.4 7 Noroeste 25 Noroeste 0.8 -- -- 97
2020-03-16 01:00:00 5.8 3 Noroeste 19 Noroeste 1.4 -- -- 97
2020-03-16 00:00:00 5.8 8 Noroeste 25 Noroeste 4.6 -- -- 97
2020-03-15 23:00:00 5.8 8 Noroeste 28 Oeste 1 -- -- 97
2020-03-15 22:00:00 6.4 12 Noroeste 38 Oeste 1.6 -- -- 95
2020-03-15 21:00:00 7.5 2 Noroeste 14 Oeste 1.6 -- -- 96
2020-03-15 20:00:00 7.7 8 Noroeste 17 Noroeste 5.2 -- -- 94
2020-03-15 19:00:00 8.9 4 Noroeste 15 Nordeste 1.4 -- -- 87
2020-03-15 18:00:00 9.9 7 Norte 21 Norte 0 -- -- 79
2020-03-15 17:00:00 11.6 4 Norte 20 Norte 0 -- -- 82
2020-03-15 16:00:00 14.8 5 Norte 27 Oeste 0 -- -- 70
2020-03-15 15:00:00 17.3 8 Oeste 20 Oeste 0 -- -- 59
2020-03-15 14:00:00 19.9 5 Este 21 Sudeste 0 -- -- 37
2020-03-15 13:00:00 18.9 12 Sudeste 25 Sur 0 -- -- 37
2020-03-15 12:00:00 18 8 Sudeste 19 Sudeste 0 -- -- 39
2020-03-15 11:00:00 15.9 8 Sudeste 23 Este 0 -- -- 47
2020-03-15 10:00:00 13.5 8 Este 17 Sudeste 0 -- -- 51
2020-03-15 09:00:00 10.9 6 Sudeste 21 Sudeste 0 -- -- 56
2020-03-15 08:00:00 8.9 6 Sudeste 23 Sudeste 0 -- -- 57
2020-03-15 07:00:00 9.6 12 Sudeste 24 Sudeste 0 -- -- 51
2020-03-15 06:00:00 8.6 6 Sudeste 18 Sudeste 0 -- -- 57
2020-03-15 05:00:00 6.2 9 Sudeste 18 Sudeste 0 -- -- 75
2020-03-15 04:00:00 5 4 Sur 15 Sudeste 0 -- -- 86
2020-03-15 03:00:00 5.3 7 Sur 14 Sudeste 0 -- -- 88
2020-03-15 02:00:00 5.3 8 Sudeste 13 Sudeste 0 -- -- 89
2020-03-15 01:00:00 5.6 7 Sur 12 Sudeste 0 -- -- 88
2020-03-15 00:00:00 6 8 Sudeste 12 Sudeste 0 -- -- 86
2020-03-14 23:00:00 5.9 3 Sur 8 Sudeste 0 -- -- 86
2020-03-14 22:00:00 6.2 2 Sur 4 Sur 0 -- -- 85
2020-03-14 21:00:00 5.8 0 Calma 4 Sudoeste 0 -- -- 89
2020-03-14 20:00:00 6.6 3 Sudoeste 5 Oeste 0 -- -- 85
2020-03-14 19:00:00 8.3 3 Oeste 9 Norte 0 -- -- 79
2020-03-14 18:00:00 10.8 0 Calma 11 Norte 0 -- -- 70
2020-03-14 17:00:00 13 5 Nordeste 14 Nordeste 0 -- -- 58
2020-03-14 16:00:00 13.5 4 Norte 13 Norte 0 -- -- 55
2020-03-14 15:00:00 12.4 3 Nordeste 16 Norte 0 -- -- 62
2020-03-14 14:00:00 12.7 6 Norte 14 Nordeste 0 -- -- 60
2020-03-14 13:00:00 11.4 5 Norte 14 Noroeste 0 -- -- 61
2020-03-14 12:00:00 11.4 4 Nordeste 13 Noroeste 0 -- -- 63
2020-03-14 11:00:00 9.7 3 Este 10 Sur 0 -- -- 74
2020-03-14 10:00:00 6.8 3 Sudeste 10 Sudeste 0 -- -- 82
2020-03-14 09:00:00 3.9 6 Sudeste 9 Sudeste 0 -- -- 92
2020-03-14 08:00:00 2.7 4 Sur 8 Sudeste 0 -- -- 97
2020-03-14 07:00:00 2.2 3 Sur 5 Sur 0 -- -- 97
2020-03-14 06:00:00 2.2 3 Sur 5 Sur 0 -- -- 96
2020-03-14 05:00:00 2.3 0 Calma 5 Sudeste 0 -- -- 94
2020-03-14 04:00:00 2.8 0 Calma 3 Sudoeste 0 -- -- 94
2020-03-14 03:00:00 3 2 Sur 4 Sur 0 -- -- 95
2020-03-14 02:00:00 3.2 0 Calma 4 Oeste 0 -- -- 94
2020-03-14 01:00:00 3.4 3 Sudoeste 4 Sudoeste 0 -- -- 94
2020-03-14 00:00:00 3.5 3 Sudoeste 4 Sudoeste 0 -- -- 94
2020-03-13 23:00:00 3.7 2 Oeste 5 Sudoeste 0 -- -- 93
2020-03-13 22:00:00 3.9 3 Oeste 5 Sudoeste 0 -- -- 91
2020-03-13 21:00:00 4.1 3 Oeste 5 Sudoeste 0 -- -- 91
2020-03-13 20:00:00 4.7 2 Oeste 9 Norte 0 -- -- 87
2020-03-13 19:00:00 6.6 3 Norte 13 Nordeste 0 -- -- 79
2020-03-13 18:00:00 8.6 3 Norte 12 Noroeste 0 -- -- 70
2020-03-13 17:00:00 10.1 4 Norte 12 Nordeste 0 -- -- 64
2020-03-13 16:00:00 10.2 4 Norte 15 Norte 0 -- -- 71
2020-03-13 15:00:00 10.1 5 Noroeste 13 Nordeste 0 -- -- 68
2020-03-13 14:00:00 9.2 6 Sudeste 16 Este 0 -- -- 73
2020-03-13 13:00:00 8.6 4 Sudeste 16 Sudeste 0 -- -- 78
2020-03-13 12:00:00 8 3 Sudeste 14 Este 0 -- -- 85
2020-03-13 11:00:00 7.5 5 Este 16 Este 0 -- -- 93
2020-03-13 10:00:00 7.1 2 Este 11 Este 0.2 -- -- 96
2020-03-13 09:00:00 7.1 7 Este 14 Este 0.4 -- -- 96
2020-03-13 08:00:00 7.3 5 Sudeste 14 Este 0.4 -- -- 96
2020-03-13 07:00:00 7.3 6 Sudeste 18 Este 0.6 -- -- 95
2020-03-13 06:00:00 7.3 4 Sudeste 15 Sudeste 0.4 -- -- 96
2020-03-13 05:00:00 7.3 3 Sudeste 14 Este 0 -- -- 95
2020-03-13 04:00:00 7.6 4 Sudeste 15 Sudeste 0.4 -- -- 96
2020-03-13 03:00:00 7.8 3 Sudeste 13 Este 0.2 -- -- 95
2020-03-13 02:00:00 7.9 2 Oeste 11 Noroeste 0.6 -- -- 96
2020-03-13 01:00:00 8 0 Calma 12 Sudeste 0.4 -- -- 97
2020-03-13 00:00:00 8 0 Calma 8 Noroeste 0.4 -- -- 97
2020-03-12 23:00:00 8.2 0 Calma 11 Noroeste 0.2 -- -- 97
2020-03-12 22:00:00 8.2 3 Oeste 18 Nordeste 0.2 -- -- 96
2020-03-12 21:00:00 8.8 3 Norte 18 Nordeste 0.2 -- -- 96
2020-03-12 20:00:00 9.6 3 Norte 8 Norte 0 -- -- 95
2020-03-12 19:00:00 10 2 Norte 10 Noroeste 0 -- -- 92
2020-03-12 18:00:00 10.4 0 Calma 13 Noroeste 0 -- -- 89
2020-03-12 17:00:00 10.6 4 Sudeste 12 Este 0 -- -- 87
2020-03-12 16:00:00 10.8 4 Norte 14 Este 0 -- -- 89
2020-03-12 15:00:00 11.4 3 Norte 11 Norte 0 -- -- 89
2020-03-12 14:00:00 11 4 Nordeste 12 Nordeste 0.4 -- -- 93
2020-03-12 13:00:00 11 0 Calma 5 Norte 0 -- -- 93
2020-03-12 12:00:00 10.9 2 Nordeste 8 Sudeste 0 -- -- 94
2020-03-12 11:00:00 10.3 0 Calma 4 Sur 0 -- -- 98
2020-03-12 10:00:00 9.7 0 Calma 4 Sudeste 0 -- -- 99
2020-03-12 09:00:00 9.3 0 Calma 2 Nordeste 0.2 -- -- 98
2020-03-12 08:00:00 8.8 0 Calma 3 Noroeste 0 -- -- 98
2020-03-12 07:00:00 8.6 0 Calma 5 Oeste 0.2 -- -- 98
2020-03-12 06:00:00 8.5 0 Calma 6 Oeste 0 -- -- 98
2020-03-12 05:00:00 8.3 4 Oeste 10 Oeste 0 -- -- 98
2020-03-12 04:00:00 8.2 5 Noroeste 15 Oeste 0 -- -- 97
2020-03-12 03:00:00 8.8 6 Noroeste 14 Noroeste 0 -- -- 95
2020-03-12 02:00:00 9 5 Noroeste 11 Noroeste 0 -- -- 93
2020-03-12 01:00:00 9.1 0 Calma 4 Oeste 0 -- -- 92
2020-03-12 00:00:00 9.6 0 Calma 4 Noroeste 0 -- -- 91
2020-03-11 23:00:00 9.5 2 Norte 9 Noroeste 0 -- -- 93
2020-03-11 22:00:00 9.5 4 Noroeste 12 Norte 0 -- -- 94
2020-03-11 21:00:00 10.4 4 Norte 20 Norte 0 -- -- 91
2020-03-11 20:00:00 12.2 6 Norte 17 Norte 0 -- -- 86
2020-03-11 19:00:00 14.5 3 Noroeste 9 Oeste 0 -- -- 82
2020-03-11 18:00:00 16.8 3 Oeste 9 Noroeste 0 -- -- 73
2020-03-11 17:00:00 20 3 Noroeste 13 Norte 0 -- -- 62
2020-03-11 16:00:00 20.9 5 Norte 11 Nordeste 0 -- -- 56
2020-03-11 15:00:00 20.7 5 Nordeste 13 Este 0 -- -- 55
2020-03-11 14:00:00 19.9 4 Sudeste 12 Este 0 -- -- 59
2020-03-11 13:00:00 18.3 5 Sudeste 12 Sur 0 -- -- 63
2020-03-11 12:00:00 16.6 5 Sudeste 12 Sudeste 0 -- -- 66
2020-03-11 11:00:00 13.4 8 Sudeste 13 Sudeste 0 -- -- 73
2020-03-11 10:00:00 10.9 7 Sudeste 12 Sudeste 0 -- -- 80
2020-03-11 09:00:00 8.9 6 Sur 10 Sudeste 0 -- -- 88
2020-03-11 08:00:00 7.8 5 Sur 12 Sudeste 0 -- -- 92
2020-03-11 07:00:00 7.4 5 Sur 9 Sudeste 0 -- -- 95
2020-03-11 06:00:00 6.7 6 Sur 11 Sudeste 0 -- -- 97
2020-03-11 05:00:00 7.8 4 Sur 9 Sudeste 0 -- -- 94
2020-03-11 04:00:00 7.7 4 Sur 9 Sur 0 -- -- 95
2020-03-11 03:00:00 7.3 9 Sudeste 12 Sudeste 0 -- -- 96
2020-03-11 02:00:00 7.3 4 Sur 8 Sudeste 0 -- -- 93
2020-03-11 01:00:00 7.6 3 Sudoeste 5 Sudoeste 0 -- -- 90
2020-03-11 00:00:00 7.6 0 Calma 4 Sudoeste 0 -- -- 90
2020-03-10 23:00:00 8 3 Sudoeste 6 Sudeste 0 -- -- 87
2020-03-10 22:00:00 8 4 Sudoeste 6 Sudoeste 0 -- -- 87
2020-03-10 21:00:00 7.9 3 Sudoeste 5 Oeste 0 -- -- 92
2020-03-10 20:00:00 8.8 3 Sudoeste 5 Sudoeste 0 -- -- 91
2020-03-10 19:00:00 10.3 2 Noroeste 8 Norte 0 -- -- 85
2020-03-10 18:00:00 12 5 Norte 15 Nordeste 0 -- -- 78
2020-03-10 17:00:00 13.8 5 Norte 17 Nordeste 0 -- -- 71
2020-03-10 16:00:00 14.9 8 Norte 15 Norte 0 -- -- 70
2020-03-10 15:00:00 15.5 3 Noroeste 14 Noroeste 0 -- -- 64
2020-03-10 14:00:00 15.1 4 Norte 16 Nordeste 0 -- -- 61
2020-03-10 13:00:00 14.3 4 Norte 10 Nordeste 0 -- -- 59
2020-03-10 12:00:00 12.3 4 Nordeste 8 Nordeste 0 -- -- 78
2020-03-10 11:00:00 9.3 5 Sudeste 12 Sudeste 0 -- -- 75
2020-03-10 10:00:00 6.5 6 Sudeste 12 Sudeste 0 -- -- 90
2020-03-10 09:00:00 5 9 Sudeste 12 Sur 0 -- -- 96
2020-03-10 08:00:00 4.3 6 Sur 10 Sudeste 0 -- -- 97
2020-03-10 07:00:00 4.1 6 Sur 11 Sudeste 0 -- -- 96
2020-03-10 06:00:00 5.1 6 Sur 12 Sudeste 0 -- -- 97
2020-03-10 05:00:00 5.1 5 Sur 8 Sudeste 0 -- -- 96
2020-03-10 04:00:00 5.3 3 Sur 7 Sur 0 -- -- 97
2020-03-10 03:00:00 5.4 3 Sur 6 Sudeste 0 -- -- 97
2020-03-10 02:00:00 5.3 3 Sur 6 Sudoeste 0 -- -- 96
2020-03-10 01:00:00 5.2 3 Sur 6 Sur 0 -- -- 97
2020-03-10 00:00:00 5.6 3 Sudoeste 4 Sudoeste 0 -- -- 96
2020-03-09 23:00:00 6.3 2 Oeste 9 Noroeste 0 -- -- 96
2020-03-09 22:00:00 6.7 3 Noroeste 18 Oeste 0 -- -- 94
2020-03-09 21:00:00 7.5 7 Noroeste 20 Noroeste 0 -- -- 90
2020-03-09 20:00:00 7.7 6 Noroeste 21 Oeste 0 -- -- 91
2020-03-09 19:00:00 7.7 8 Noroeste 18 Noroeste 0 -- -- 90
2020-03-09 18:00:00 8.1 8 Noroeste 29 Oeste 0 -- -- 90
2020-03-09 17:00:00 8.1 8 Norte 30 Oeste 0.8 -- -- 96
2020-03-09 16:00:00 8 8 Noroeste 30 Norte 0.2 -- -- 94
2020-03-09 15:00:00 8.4 8 Norte 33 Norte 1 -- -- 91
2020-03-09 14:00:00 8.1 9 Noroeste 33 Noroeste 0.2 -- -- 94
2020-03-09 13:00:00 8 7 Noroeste 36 Oeste 2 -- -- 95
2020-03-09 12:00:00 7.5 9 Noroeste 33 Oeste 2.8 -- -- 95
2020-03-09 11:00:00 7.1 11 Noroeste 27 Oeste 1 -- -- 95
2020-03-09 10:00:00 7.7 12 Noroeste 31 Nordeste 0 -- -- 95
2020-03-09 09:00:00 6.5 7 Noroeste 30 Oeste 1.6 -- -- 95
2020-03-09 08:00:00 6.7 8 Noroeste 26 Noroeste 0.6 -- -- 95
2020-03-09 07:00:00 6.6 10 Noroeste 30 Noroeste 0.8 -- -- 95
2020-03-09 06:00:00 6.5 10 Noroeste 26 Noroeste 1.2 -- -- 95
2020-03-09 05:00:00 6.1 9 Noroeste 28 Noroeste 2 -- -- 95
2020-03-09 04:00:00 6.6 8 Noroeste 26 Noroeste 0 -- -- 95
2020-03-09 03:00:00 6.7 6 Norte 24 Norte 2 -- -- 94
2020-03-09 02:00:00 7.2 8 Norte 24 Noroeste 0.2 -- -- 90
2020-03-09 01:00:00 7.4 8 Norte 33 Noroeste 0.2 -- -- 94
2020-03-09 00:00:00 8.2 4 Noroeste 23 Oeste 0 -- -- 85
2020-03-08 23:00:00 8.6 8 Norte 25 Noroeste 0 -- -- 81
2020-03-08 22:00:00 8.6 5 Norte 27 Noroeste 0.2 -- -- 86
2020-03-08 21:00:00 8.7 8 Norte 24 Oeste 0 -- -- 87
2020-03-08 20:00:00 9.4 8 Noroeste 23 Norte 0 -- -- 82
2020-03-08 19:00:00 9.8 6 Noroeste 26 Nordeste 0 -- -- 79
2020-03-08 18:00:00 11 8 Noroeste 30 Norte 0 -- -- 79
2020-03-08 17:00:00 13.6 3 Norte 12 Nordeste 0 -- -- 67
2020-03-08 16:00:00 14.2 5 Nordeste 13 Nordeste 0 -- -- 60
2020-03-08 15:00:00 13.6 4 Nordeste 9 Este 0 -- -- 62
2020-03-08 14:00:00 13.8 4 Norte 9 Norte 0 -- -- 59
2020-03-08 13:00:00 13 4 Sudeste 10 Sudeste 0 -- -- 73
2020-03-08 12:00:00 10 3 Sur 9 Sudeste 0 -- -- 81
2020-03-08 11:00:00 8.3 5 Sur 13 Sudeste 0 -- -- 85
2020-03-08 10:00:00 6.9 7 Sudeste 12 Sudeste 0 -- -- 88
2020-03-08 09:00:00 5.7 3 Sur 8 Sur 0 -- -- 98
2020-03-08 08:00:00 4.3 4 Sur 9 Sur 0 -- -- 98
2020-03-08 07:00:00 4 5 Sur 11 Sur 0 -- -- 98
2020-03-08 06:00:00 3.9 4 Sur 8 Sur 0 -- -- 99
2020-03-08 05:00:00 3.7 4 Sur 13 Sudeste 0 -- -- 99
2020-03-08 04:00:00 3.5 6 Sur 12 Sudeste 0 -- -- 99
2020-03-08 03:00:00 3.9 5 Sur 14 Sudeste 0 -- -- 99
2020-03-08 02:00:00 4.6 10 Sudeste 15 Sudeste 0 -- -- 99
2020-03-08 01:00:00 5 6 Sudeste 13 Sudeste 0 -- -- 99
2020-03-08 00:00:00 5.2 6 Sudeste 11 Sudeste 0 -- -- 98
2020-03-07 23:00:00 5.2 3 Sur 8 Sudeste 0 -- -- 98
2020-03-07 22:00:00 5.1 2 Sur 5 Sudoeste 0.2 -- -- 97
2020-03-07 21:00:00 5.4 3 Sudoeste 6 Sudoeste 0 -- -- 97
2020-03-07 20:00:00 6 4 Sudoeste 5 Sudoeste 0 -- -- 95
2020-03-07 19:00:00 8.1 2 Sur 5 Noroeste 0 -- -- 94
2020-03-07 18:00:00 8.6 3 Norte 14 Oeste 0 -- -- 93
2020-03-07 17:00:00 8.3 7 Noroeste 21 Noroeste 0 -- -- 93
2020-03-07 16:00:00 8.1 9 Noroeste 18 Noroeste 0 -- -- 95
2020-03-07 15:00:00 7.9 8 Noroeste 28 Noroeste 0.6 -- -- 96
2020-03-07 14:00:00 7.6 11 Noroeste 34 Noroeste 4.4 -- -- 97
2020-03-07 13:00:00 8.5 9 Noroeste 19 Noroeste 1 -- -- 96
2020-03-07 12:00:00 8.3 6 Noroeste 23 Norte 1 -- -- 97
2020-03-07 11:00:00 8 5 Noroeste 16 Norte 1.8 -- -- 97
2020-03-07 10:00:00 7.4 7 Norte 19 Noroeste 3 -- -- 97
2020-03-07 09:00:00 6.9 4 Noroeste 15 Norte 0.6 -- -- 97
2020-03-07 08:00:00 6.7 6 Norte 24 Oeste 0 -- -- 95
2020-03-07 07:00:00 6.6 6 Noroeste 22 Oeste 0 -- -- 96
2020-03-07 06:00:00 6.4 7 Noroeste 24 Noroeste 0.4 -- -- 96
2020-03-07 05:00:00 5.9 5 Noroeste 26 Oeste 0.8 -- -- 96
2020-03-07 04:00:00 5.8 6 Norte 27 Noroeste 1.2 -- -- 95
2020-03-07 03:00:00 5.5 8 Noroeste 25 Oeste 0 -- -- 94
2020-03-07 02:00:00 5 10 Noroeste 29 Noroeste 0.2 -- -- 93
2020-03-07 01:00:00 4.7 11 Noroeste 37 Oeste 1.2 -- -- 94
2020-03-07 00:00:00 4.3 8 Noroeste 28 Oeste 2 -- -- 94
2020-03-06 23:00:00 4.2 8 Noroeste 30 Nordeste 0.4 -- -- 93
2020-03-06 22:00:00 4.1 10 Noroeste 28 Oeste 0 -- -- 95
2020-03-06 21:00:00 4 13 Noroeste 43 Noroeste 0.6 -- -- 95
2020-03-06 20:00:00 4.6 13 Noroeste 41 Noroeste 1 -- -- 94
2020-03-06 19:00:00 4.8 14 Noroeste 38 Oeste 0.2 -- -- 93
2020-03-06 18:00:00 4.2 19 Noroeste 53 Noroeste 1.8 -- -- 91
2020-03-06 17:00:00 4.8 18 Noroeste 46 Noroeste 0.8 -- -- 92
2020-03-06 16:00:00 4.2 14 Noroeste 70 Noroeste 1.2 -- -- 94
2020-03-06 15:00:00 5.3 17 Norte 67 Noroeste 0.6 -- -- 92
2020-03-06 14:00:00 5.1 14 Noroeste 49 Noroeste 1.2 -- -- 87
2020-03-06 13:00:00 5 14 Noroeste 36 Norte 1.8 -- -- 91
2020-03-06 12:00:00 3.5 12 Noroeste 24 Noroeste 2.8 -- -- 95
2020-03-06 11:00:00 2.5 8 Noroeste 52 Norte 2.2 -- -- 93
2020-03-06 10:00:00 3.4 12 Noroeste 36 Oeste 1 -- -- 96
2020-03-06 09:00:00 2.4 6 Norte 26 Noroeste 4.6 -- -- 97
2020-03-06 08:00:00 2.9 11 Noroeste 34 Oeste 3 -- -- 94
2020-03-06 07:00:00 3.4 9 Norte 44 Noroeste 1.8 -- -- 95
2020-03-06 06:00:00 3.8 12 Norte 41 Noroeste 2 -- -- 94
2020-03-06 05:00:00 5.1 11 Noroeste 50 Oeste 0.8 -- -- 89
2020-03-06 04:00:00 5.5 5 Norte 17 Norte 0 -- -- 81
2020-03-06 03:00:00 4.3 2 Oeste 8 Sudoeste 0 -- -- 93
2020-03-06 02:00:00 3.8 3 Sudoeste 8 Sur 0 -- -- 94
2020-03-06 01:00:00 4.3 5 Sudoeste 8 Oeste 0 -- -- 91
2020-03-06 00:00:00 5.1 0 Calma 12 Noroeste 0 -- -- 90
2020-03-05 23:00:00 5.9 4 Norte 17 Noroeste 0 -- -- 89
2020-03-05 22:00:00 6.1 6 Noroeste 27 Noroeste 0 -- -- 89
2020-03-05 21:00:00 6 8 Norte 26 Noroeste 0.2 -- -- 93
2020-03-05 20:00:00 6.2 12 Noroeste 32 Noroeste 0.6 -- -- 91
2020-03-05 19:00:00 6.7 7 Norte 34 Noroeste 0 -- -- 87
2020-03-05 18:00:00 7.2 11 Norte 41 Noroeste 0.6 -- -- 89
2020-03-05 17:00:00 7.6 17 Noroeste 49 Oeste 0.2 -- -- 90
2020-03-05 16:00:00 7.5 12 Noroeste 47 Noroeste 1.4 -- -- 94
2020-03-05 15:00:00 8.9 14 Noroeste 44 Oeste 0.8 -- -- 90
2020-03-05 14:00:00 11.6 9 Norte 25 Noroeste 0.2 -- -- 83
2020-03-05 13:00:00 10.2 4 Sudeste 11 Sudeste 0 -- -- 91
2020-03-05 12:00:00 8.8 4 Norte 24 Oeste 0.6 -- -- 96
2020-03-05 11:00:00 8.3 8 Noroeste 28 Norte 5 -- -- 95
2020-03-05 10:00:00 8.5 8 Noroeste 35 Noroeste 8.8 -- -- 95
2020-03-05 09:00:00 9.3 9 Noroeste 32 Norte 5.4 -- -- 92
2020-03-05 08:00:00 14 10 Norte 32 Noroeste 0 -- -- 69
2020-03-05 07:00:00 13.4 14 Norte 31 Nordeste 0.2 -- -- 74
2020-03-05 06:00:00 13.3 9 Este 35 Nordeste 0.4 -- -- 81
2020-03-05 05:00:00 14.6 9 Sudoeste 36 Sudoeste 0 -- -- 69
2020-03-05 04:00:00 14.2 9 Sudeste 34 Sur 0 -- -- 70
2020-03-05 03:00:00 14 6 Sur 27 Noroeste 0 -- -- 70
2020-03-05 02:00:00 13.1 4 Sur 26 Este 0 -- -- 76
2020-03-05 01:00:00 13.9 4 Noroeste 28 Noroeste 0 -- -- 73
2020-03-05 00:00:00 12.7 5 Este 17 Nordeste 0 -- -- 79
2020-03-04 23:00:00 14.1 4 Este 18 Este 0 -- -- 72
2020-03-04 22:00:00 12.5 4 Sudoeste 11 Sudeste 0 -- -- 81
2020-03-04 21:00:00 12 3 Sur 6 Sudoeste 0 -- -- 88
2020-03-04 20:00:00 12.4 4 Sur 9 Sudeste 0 -- -- 88
2020-03-04 19:00:00 13.1 3 Sudoeste 4 Sudoeste 0 -- -- 87
2020-03-04 18:00:00 14.8 0 Calma 4 Oeste 0 -- -- 84
2020-03-04 17:00:00 15.5 0 Calma 5 Sudeste 0 -- -- 78
2020-03-04 16:00:00 15.9 2 Sudeste 6 Este 0 -- -- 75
2020-03-04 15:00:00 16.3 4 Este 8 Nordeste 0 -- -- 68
2020-03-04 14:00:00 16 3 Norte 9 Norte 0 -- -- 72
2020-03-04 13:00:00 15.2 4 Norte 18 Oeste 0 -- -- 77
2020-03-04 12:00:00 15.2 4 Norte 10 Noroeste 0 -- -- 75
2020-03-04 11:00:00 12.7 4 Sudeste 9 Sudeste 0 -- -- 93
2020-03-04 10:00:00 11.4 2 Este 11 Sudeste 0 -- -- 99
2020-03-04 09:00:00 9.2 4 Sur 13 Sudeste 0.2 -- -- 98
2020-03-04 08:00:00 8.3 8 Sudeste 13 Sudeste 0.8 -- -- 98
2020-03-04 07:00:00 7.7 4 Sudeste 11 Sudeste 2.6 -- -- 98
2020-03-04 06:00:00 7.4 5 Sudeste 10 Sudeste 3.2 -- -- 98
2020-03-04 05:00:00 7.2 2 Sudoeste 10 Sudeste 0.4 -- -- 99
2020-03-04 04:00:00 7 5 Sudeste 10 Sudeste 0.8 -- -- 98
2020-03-04 03:00:00 7 5 Sudeste 12 Sudeste 0 -- -- 98
2020-03-04 02:00:00 7 5 Sudeste 10 Sudeste 0 -- -- 98
2020-03-04 01:00:00 7.1 0 Calma 8 Sudeste 0 -- -- 97
2020-03-04 00:00:00 7.2 4 Sudeste 6 Este 0.2 -- -- 97
2020-03-03 23:00:00 7.2 2 Noroeste 7 Noroeste 0.8 -- -- 96
2020-03-03 22:00:00 7.4 4 Noroeste 14 Norte 1 -- -- 96
2020-03-03 21:00:00 7.7 3 Norte 17 Oeste 0.8 -- -- 95
2020-03-03 20:00:00 8.4 5 Norte 22 Noroeste 0 -- -- 88
2020-03-03 19:00:00 9.1 10 Norte 39 Noroeste 0 -- -- 82
2020-03-03 18:00:00 9.9 15 Norte 46 Norte 0 -- -- 84
2020-03-03 17:00:00 10.6 18 Noroeste 65 Noroeste 0 -- -- 82
2020-03-03 16:00:00 11.5 26 Noroeste 83 Noroeste 0 -- -- 72
2020-03-03 15:00:00 12 21 Noroeste 62 Noroeste 0 -- -- 79
2020-03-03 14:00:00 12.6 18 Noroeste 45 Oeste 0 -- -- 82
2020-03-03 13:00:00 13.8 9 Norte 28 Nordeste 0 -- -- 72
2020-03-03 12:00:00 12.9 6 Norte 21 Noroeste 0 -- -- 68
2020-03-03 11:00:00 10.4 8 Oeste 28 Noroeste 0 -- -- 75
2020-03-03 10:00:00 7.6 9 Norte 28 Sur 0.4 -- -- 85
2020-03-03 09:00:00 5.6 9 Nordeste 28 Noroeste 1.2 -- -- 89
2020-03-03 08:00:00 4.4 4 Este 13 Nordeste 1.4 -- -- 93
2020-03-03 07:00:00 4.7 8 Nordeste 15 Nordeste 0.6 -- -- 90
2020-03-03 06:00:00 4.9 5 Norte 18 Norte 0 -- -- 86
2020-03-03 05:00:00 4.5 4 Oeste 11 Oeste 0 -- -- 80
2020-03-03 04:00:00 4 5 Sudoeste 13 Sudeste 0 -- -- 87
2020-03-03 03:00:00 3.9 4 Sudoeste 8 Sudoeste 0 -- -- 89
2020-03-03 02:00:00 3.7 3 Sudoeste 12 Sudeste 0 -- -- 96
2020-03-03 01:00:00 3.7 4 Sur 10 Sudeste 0 -- -- 94
2020-03-03 00:00:00 3.7 3 Sudoeste 8 Norte 0.2 -- -- 95